Terminal Aerodrome Forecast
Issued by NWS

Home | Current Version | Previous Version | Graphics & Text | Print | Product List | Glossary On
Versions: 1 2 3 4 5 6 7 8 9 10 11 12 13 14 15 16 17
000
FTUS43 KICT 150539
TAFSLN
TAF
KSLN 150539Z 1506/1606 VRB03KT P6SM OVC025
      TEMPO 1506/1510 6SM -FZRA OVC019
     FM151000 05004KT 6SM -FZRA OVC015
      TEMPO 1510/1514 3SM FZRA OVC007
     FM151800 07005KT 6SM -RA OVC006
     FM152300 06006KT 6SM BR OVC007
      AMD NOT SKED=

USA.gov is the U.S. government's official web portal to all federal, state and local government web resources and services.